Terminal Aerodrome Forecast
Issued by NWS

Home | Current Version | Previous Version | Text Only | Print | Product List | Glossary On
Versions: 1 2 3 4 5 6 7 8 9 10 11 12 13 14 15 16 17 18 19 20 21 22 23 24
367
FTUS46 KMFR 232334
TAFOTH
TAF
KOTH 232334Z 2400/2424 36020G35KT P6SM FEW100
     FM240600 36014G25KT P6SM SCT012
     FM240800 36012G20KT P6SM OVC015
     FM241100 36010KT 6SM BR OVC005
     FM241600 36011KT P6SM OVC008=

USA.gov is the U.S. government's official web portal to all federal, state and local government web resources and services.